Time;durP1;ratioP1;P1;durP2;ratioP2;P2;SDS_P1;SDS_P2;PMS_P1;PMS_P2;Temp;Humidity;BMP_temperature;BMP_pressure;BME280_temperature;BME280_humidity;BME280_pressure;Samples;Min_cycle;Max_cycle;Signal;HPM_P1;HPM_P2
2023/06/15 00:02:24;;;;;;;7.60;2.60;;;;;;;;;;5008176;28;20459;-59
2023/06/15 00:04:51;;;;;;;4.97;2.70;;;;;;;;;;4990592;28;20085;-60
2023/06/15 00:07:17;;;;;;;5.53;2.43;;;;;;;;;;5008606;28;20046;-60
2023/06/15 00:09:43;;;;;;;4.27;2.50;;;;;;;;;;5008408;28;20508;-60
2023/06/15 00:12:09;;;;;;;8.90;3.23;;;;;;;;;;5008623;28;20049;-60
2023/06/15 00:14:36;;;;;;;4.30;2.53;;;;;;;;;;5012705;28;20050;-60
2023/06/15 00:17:02;;;;;;;8.37;3.07;;;;;;;;;;5012098;28;20045;-60
2023/06/15 00:19:28;;;;;;;7.97;2.97;;;;;;;;;;5011802;28;20050;-60
2023/06/15 00:21:56;;;;;;;9.73;2.73;;;;;;;;;;5011114;28;20046;-60
2023/06/15 00:24:22;;;;;;;4.40;2.50;;;;;;;;;;5011506;28;20049;-60
2023/06/15 00:26:48;;;;;;;5.30;2.60;;;;;;;;;;5011779;28;20406;-60
2023/06/15 00:29:14;;;;;;;6.40;2.77;;;;;;;;;;5011052;28;20038;-60
2023/06/15 00:31:40;;;;;;;4.87;3.00;;;;;;;;;;5011402;28;20080;-60
2023/06/15 00:34:06;;;;;;;8.37;3.23;;;;;;;;;;5011966;28;20052;-59
2023/06/15 00:36:32;;;;;;;8.43;3.03;;;;;;;;;;5011811;28;20455;-60
2023/06/15 00:38:58;;;;;;;7.40;3.03;;;;;;;;;;5011829;28;20042;-60
2023/06/15 00:41:25;;;;;;;8.40;2.70;;;;;;;;;;5011729;28;20095;-60
2023/06/15 00:43:52;;;;;;;9.97;3.10;;;;;;;;;;5011986;28;20129;-60
2023/06/15 00:46:18;;;;;;;7.43;3.20;;;;;;;;;;5011196;28;20046;-59
2023/06/15 00:48:45;;;;;;;8.77;2.93;;;;;;;;;;5010935;28;20100;-60
2023/06/15 00:51:11;;;;;;;9.67;3.00;;;;;;;;;;5011098;28;20062;-59
2023/06/15 00:53:37;;;;;;;8.57;3.20;;;;;;;;;;4993261;28;20104;-59
2023/06/15 00:56:05;;;;;;;6.70;3.80;;;;;;;;;;5003916;28;20050;-60
2023/06/15 00:58:31;;;;;;;4.63;3.53;;;;;;;;;;5010593;28;20054;-59
2023/06/15 01:00:57;;;;;;;8.47;3.27;;;;;;;;;;5011304;28;20132;-60
2023/06/15 01:03:23;;;;;;;6.70;3.10;;;;;;;;;;5011846;28;20049;-60
2023/06/15 01:05:52;;;;;;;4.63;3.20;;;;;;;;;;5011603;28;20085;-60
2023/06/15 01:08:20;;;;;;;9.17;4.03;;;;;;;;;;5010921;28;20046;-59
2023/06/15 01:10:46;;;;;;;13.50;3.47;;;;;;;;;;5011167;28;20419;-60
2023/06/15 01:13:12;;;;;;;9.67;3.20;;;;;;;;;;5011119;28;20042;-59
2023/06/15 01:15:40;;;;;;;7.47;3.63;;;;;;;;;;5011412;28;20050;-60
2023/06/15 01:18:07;;;;;;;8.40;3.80;;;;;;;;;;5010642;28;20255;-59
2023/06/15 01:20:38;;;;;;;7.50;3.13;;;;;;;;;;5010994;28;20060;-60
2023/06/15 01:23:25;;;;;;;7.37;3.40;;;;;;;;;;5011204;28;20194;-60
2023/06/15 01:26:10;;;;;;;6.03;3.20;;;;;;;;;;5010463;28;20133;-60
2023/06/15 01:28:40;;;;;;;8.87;3.77;;;;;;;;;;4991506;28;20109;-59
2023/06/15 01:31:07;;;;;;;6.60;3.87;;;;;;;;;;4990903;28;20058;-60
2023/06/15 01:33:33;;;;;;;8.90;3.33;;;;;;;;;;4991365;28;20404;-60
2023/06/15 01:35:59;;;;;;;7.97;3.03;;;;;;;;;;4995521;28;20593;-60
2023/06/15 01:38:26;;;;;;;9.23;3.90;;;;;;;;;;5010804;28;20136;-60
2023/06/15 01:40:54;;;;;;;9.23;4.63;;;;;;;;;;5010574;28;20076;-59
2023/06/15 01:43:24;;;;;;;11.47;3.60;;;;;;;;;;5009768;28;20456;-60
2023/06/15 01:45:51;;;;;;;8.43;4.10;;;;;;;;;;5009330;28;20056;-59
2023/06/15 01:48:18;;;;;;;6.67;3.40;;;;;;;;;;5009622;28;20415;-60
2023/06/15 01:50:44;;;;;;;7.03;3.87;;;;;;;;;;5010387;28;20049;-59
2023/06/15 01:53:10;;;;;;;8.07;3.83;;;;;;;;;;5010201;28;20042;-59
2023/06/15 01:55:36;;;;;;;6.60;3.57;;;;;;;;;;5010398;28;20103;-59
2023/06/15 01:58:02;;;;;;;6.43;4.27;;;;;;;;;;4992710;28;20050;-59
2023/06/15 02:00:28;;;;;;;7.43;3.73;;;;;;;;;;4992202;28;20553;-59
2023/06/15 02:02:55;;;;;;;9.20;3.97;;;;;;;;;;5010304;28;20046;-60
2023/06/15 02:05:21;;;;;;;5.87;3.50;;;;;;;;;;5010592;28;20053;-60
2023/06/15 02:07:47;;;;;;;6.30;4.00;;;;;;;;;;5010716;28;20056;-60
2023/06/15 02:10:13;;;;;;;6.67;4.37;;;;;;;;;;5010113;28;20042;-60
2023/06/15 02:12:39;;;;;;;9.03;4.47;;;;;;;;;;5010259;28;20092;-60
2023/06/15 02:15:06;;;;;;;5.17;4.10;;;;;;;;;;5010362;28;20057;-59
2023/06/15 02:17:38;;;;;;;8.73;4.57;;;;;;;;;;5009899;28;21532;-59
2023/06/15 02:20:05;;;;;;;7.97;4.27;;;;;;;;;;5010111;28;20049;-60
2023/06/15 02:22:31;;;;;;;7.00;4.50;;;;;;;;;;5009549;28;20045;-59
2023/06/15 02:24:57;;;;;;;6.73;4.40;;;;;;;;;;5009833;28;20407;-60
2023/06/15 02:27:23;;;;;;;9.17;4.67;;;;;;;;;;5009887;28;20048;-60
2023/06/15 02:29:49;;;;;;;7.73;4.53;;;;;;;;;;5009546;28;20042;-59
2023/06/15 02:32:31;;;;;;;5.83;4.20;;;;;;;;;;5008930;28;20084;-59
2023/06/15 02:34:58;;;;;;;6.57;4.23;;;;;;;;;;5009654;28;20061;-60
2023/06/15 02:37:24;;;;;;;8.27;4.73;;;;;;;;;;5008797;28;20092;-60
2023/06/15 02:39:50;;;;;;;9.77;4.97;;;;;;;;;;5009370;28;20061;-60
2023/06/15 02:42:16;;;;;;;8.97;5.03;;;;;;;;;;5009593;28;20041;-61
2023/06/15 02:44:42;;;;;;;9.33;5.37;;;;;;;;;;5008041;28;20045;-60
2023/06/15 02:47:08;;;;;;;7.43;5.13;;;;;;;;;;4993516;28;20046;-59
2023/06/15 02:49:34;;;;;;;10.20;4.97;;;;;;;;;;4989555;28;20058;-59
2023/06/15 02:52:00;;;;;;;7.63;5.57;;;;;;;;;;4990048;28;20129;-59
2023/06/15 02:54:27;;;;;;;10.73;5.17;;;;;;;;;;4989844;28;20050;-59
2023/06/15 02:56:54;;;;;;;8.80;5.30;;;;;;;;;;4989633;28;20113;-59
2023/06/15 02:59:25;;;;;;;11.30;5.20;;;;;;;;;;4989821;28;20055;-60
2023/06/15 03:01:51;;;;;;;9.17;5.83;;;;;;;;;;5002491;28;20046;-59
2023/06/15 03:04:17;;;;;;;8.63;4.57;;;;;;;;;;5009348;28;20050;-59
2023/06/15 03:06:44;;;;;;;8.10;5.23;;;;;;;;;;5008734;28;20049;-60
2023/06/15 03:09:11;;;;;;;9.40;4.90;;;;;;;;;;5009478;28;20050;-60
2023/06/15 03:11:37;;;;;;;12.07;5.93;;;;;;;;;;5008882;28;20128;-60
2023/06/15 03:14:03;;;;;;;12.47;5.20;;;;;;;;;;5008971;28;20077;-60
2023/06/15 03:16:32;;;;;;;10.87;5.43;;;;;;;;;;5009042;28;20360;-60
2023/06/15 03:19:00;;;;;;;8.43;5.37;;;;;;;;;;5008678;28;20069;-59
2023/06/15 03:21:26;;;;;;;7.37;5.63;;;;;;;;;;5008465;28;20116;-60
2023/06/15 03:23:52;;;;;;;10.70;5.80;;;;;;;;;;5008708;28;20056;-60
2023/06/15 03:26:23;;;;;;;9.37;6.10;;;;;;;;;;5008206;28;20474;-60
2023/06/15 03:28:50;;;;;;;11.20;6.80;;;;;;;;;;5008169;28;20132;-59
2023/06/15 03:31:17;;;;;;;12.50;6.23;;;;;;;;;;5008384;28;20046;-60
2023/06/15 03:33:44;;;;;;;12.73;5.73;;;;;;;;;;5007949;28;20156;-60
2023/06/15 03:36:10;;;;;;;11.57;5.83;;;;;;;;;;5007966;28;20060;-60
2023/06/15 03:38:36;;;;;;;10.60;6.27;;;;;;;;;;5008946;28;20042;-60
2023/06/15 03:41:02;;;;;;;13.17;6.43;;;;;;;;;;5008688;28;20042;-60
2023/06/15 03:43:28;;;;;;;9.83;6.23;;;;;;;;;;5007326;28;20392;-59
2023/06/15 03:45:54;;;;;;;9.90;6.10;;;;;;;;;;5008465;28;20073;-60
2023/06/15 03:48:20;;;;;;;10.03;6.73;;;;;;;;;;5010999;28;20054;-60
2023/06/15 03:50:46;;;;;;;9.10;6.20;;;;;;;;;;5014536;28;20517;-60
2023/06/15 03:53:12;;;;;;;10.10;6.80;;;;;;;;;;5015142;28;20140;-60
2023/06/15 03:55:39;;;;;;;12.27;6.03;;;;;;;;;;5014165;28;20058;-60
2023/06/15 03:58:05;;;;;;;11.77;6.30;;;;;;;;;;5014465;28;20440;-60
2023/06/15 06:49:17;;;;;;;5.97;2.60;;;;;;;;;;4813145;28;20112;-62
2023/06/15 06:51:43;;;;;;;5.93;2.83;;;;;;;;;;4969117;28;20051;-62
2023/06/15 06:54:09;;;;;;;6.53;2.83;;;;;;;;;;4969931;28;20063;-62
2023/06/15 06:56:35;;;;;;;8.20;2.70;;;;;;;;;;4969903;28;20054;-62
2023/06/15 06:59:02;;;;;;;4.00;2.53;;;;;;;;;;4969332;28;20043;-62
2023/06/15 07:01:28;;;;;;;8.83;2.90;;;;;;;;;;4969304;28;20054;-62
2023/06/15 07:03:54;;;;;;;3.93;2.53;;;;;;;;;;4969846;28;20043;-62
2023/06/15 07:06:20;;;;;;;5.07;2.67;;;;;;;;;;4969641;28;20117;-62
2023/06/15 07:08:47;;;;;;;5.97;2.50;;;;;;;;;;4969858;28;20053;-62
2023/06/15 07:11:13;;;;;;;9.63;2.80;;;;;;;;;;4969178;28;20058;-62
2023/06/15 07:13:39;;;;;;;6.07;2.70;;;;;;;;;;4969929;28;20420;-62
2023/06/15 07:16:06;;;;;;;5.40;2.77;;;;;;;;;;4969400;28;20051;-62
2023/06/15 07:18:32;;;;;;;5.87;2.77;;;;;;;;;;4969635;28;20047;-61
2023/06/15 07:20:58;;;;;;;5.37;2.57;;;;;;;;;;4969184;28;20043;-62
2023/06/15 07:23:25;;;;;;;11.03;3.00;;;;;;;;;;4968947;28;20198;-62
2023/06/15 07:25:52;;;;;;;6.47;2.50;;;;;;;;;;4969531;28;20050;-62
2023/06/15 07:28:18;;;;;;;6.50;2.40;;;;;;;;;;4969543;28;20051;-62
2023/06/15 07:30:46;;;;;;;7.53;2.60;;;;;;;;;;4969224;28;20043;-62
2023/06/15 07:33:12;;;;;;;6.03;2.87;;;;;;;;;;4951794;28;20086;-62
2023/06/15 07:35:38;;;;;;;8.63;2.70;;;;;;;;;;4962246;28;20531;-62
2023/06/15 07:38:04;;;;;;;4.97;2.70;;;;;;;;;;4969411;28;20061;-62
2023/06/15 07:40:30;;;;;;;5.97;3.10;;;;;;;;;;4969203;28;20092;-62
2023/06/15 07:42:56;;;;;;;6.23;2.30;;;;;;;;;;4969533;28;20058;-62
2023/06/15 07:45:22;;;;;;;7.17;2.60;;;;;;;;;;4969743;28;20047;-62
2023/06/15 07:47:48;;;;;;;6.23;2.73;;;;;;;;;;4969249;28;20539;-62
2023/06/15 07:50:15;;;;;;;6.67;2.40;;;;;;;;;;4969805;28;20068;-62
2023/06/15 07:52:40;;;;;;;8.20;3.13;;;;;;;;;;4975220;28;20053;-63
2023/06/15 07:55:07;;;;;;;9.00;2.77;;;;;;;;;;4988364;28;20505;-63
2023/06/15 07:57:34;;;;;;;11.67;2.60;;;;;;;;;;4989055;28;20045;-64
2023/06/15 08:00:01;;;;;;;6.47;2.47;;;;;;;;;;4984583;28;20122;-62
2023/06/15 08:02:27;;;;;;;7.93;2.73;;;;;;;;;;4968894;28;20043;-62
2023/06/15 08:04:53;;;;;;;10.90;2.80;;;;;;;;;;4969076;28;20415;-62
2023/06/15 08:07:19;;;;;;;6.65;2.70;;;;;;;;;;4969186;28;20074;-62
2023/06/15 08:09:45;;;;;;;7.72;2.45;;;;;;;;;;4969272;28;20117;-62
2023/06/15 08:12:11;;;;;;;7.18;2.05;;;;;;;;;;4969008;28;20497;-62
2023/06/15 08:14:37;;;;;;;5.72;2.40;;;;;;;;;;4968848;28;20404;-62
2023/06/15 08:17:03;;;;;;;4.18;2.30;;;;;;;;;;4968871;28;20114;-63
2023/06/15 08:19:29;;;;;;;8.32;2.30;;;;;;;;;;4968974;28;20046;-62
2023/06/15 08:21:55;;;;;;;7.53;2.38;;;;;;;;;;4968603;28;20051;-63
2023/06/15 08:24:21;;;;;;;8.23;2.50;;;;;;;;;;4969204;28;20733;-63
2023/06/15 08:26:50;;;;;;;5.93;2.33;;;;;;;;;;4968093;28;20058;-63
2023/06/15 08:29:16;;;;;;;6.82;2.40;;;;;;;;;;4968773;28;20093;-62
2023/06/15 08:31:42;;;;;;;4.57;2.15;;;;;;;;;;4968585;28;20054;-63
2023/06/15 08:34:08;;;;;;;4.13;2.70;;;;;;;;;;4968796;28;20110;-63
2023/06/15 08:36:35;;;;;;;9.07;2.30;;;;;;;;;;4972307;28;20513;-63
2023/06/15 08:39:03;;;;;;;4.85;2.20;;;;;;;;;;4972079;28;20511;-62
2023/06/15 08:41:29;;;;;;;4.18;2.20;;;;;;;;;;4971962;28;20043;-62
2023/06/15 08:43:56;;;;;;;4.55;2.20;;;;;;;;;;4971794;28;20098;-63
2023/06/15 08:46:25;;;;;;;7.38;3.00;;;;;;;;;;4972710;28;20065;-62
2023/06/15 08:48:51;;;;;;;5.18;2.28;;;;;;;;;;4959716;28;20117;-60
2023/06/15 08:51:18;;;;;;;4.50;1.75;;;;;;;;;;4952359;29;20051;-60
2023/06/15 08:53:45;;;;;;;8.90;2.13;;;;;;;;;;4952384;29;20043;-60
2023/06/15 08:56:11;;;;;;;3.28;2.00;;;;;;;;;;4952789;29;20097;-60
2023/06/15 08:58:38;;;;;;;6.00;2.20;;;;;;;;;;4952612;29;20050;-60
2023/06/15 09:01:05;;;;;;;6.22;2.53;;;;;;;;;;4952792;29;20098;-60
2023/06/15 09:03:31;;;;;;;4.85;2.20;;;;;;;;;;4952177;29;20468;-60
2023/06/15 09:05:58;;;;;;;4.07;1.88;;;;;;;;;;4952698;29;20051;-60
2023/06/15 09:08:24;;;;;;;4.57;2.25;;;;;;;;;;4952527;29;20047;-60
2023/06/15 09:10:50;;;;;;;6.00;2.22;;;;;;;;;;4952932;29;20047;-60
2023/06/15 09:13:17;;;;;;;6.30;2.03;;;;;;;;;;4952500;29;20043;-60
2023/06/15 09:15:50;;;;;;;5.32;2.65;;;;;;;;;;4952447;29;20049;-60
2023/06/15 09:18:16;;;;;;;4.95;2.50;;;;;;;;;;4952217;29;20505;-60
2023/06/15 09:20:42;;;;;;;5.35;2.20;;;;;;;;;;4952530;29;20333;-60
2023/06/15 09:23:13;;;;;;;5.03;2.30;;;;;;;;;;4951453;29;20580;-60
2023/06/15 09:25:41;;;;;;;7.30;2.95;;;;;;;;;;4952072;29;20059;-60
2023/06/15 09:28:07;;;;;;;5.45;2.20;;;;;;;;;;4952149;29;20555;-60
2023/06/15 09:30:37;;;;;;;9.02;3.97;;;;;;;;;;4952071;29;20497;-60
2023/06/15 09:33:14;;;;;;;3.33;2.20;;;;;;;;;;4951951;29;20149;-61
2023/06/15 09:36:06;;;;;;;5.63;2.35;;;;;;;;;;4951834;29;20078;-61
2023/06/15 09:38:44;;;;;;;5.18;2.17;;;;;;;;;;4950225;29;20083;-61
2023/06/15 09:41:10;;;;;;;5.47;2.13;;;;;;;;;;4951516;29;20047;-60
2023/06/15 09:43:38;;;;;;;8.68;2.58;;;;;;;;;;4951773;29;20044;-61
2023/06/15 09:46:16;;;;;;;7.47;2.20;;;;;;;;;;4951034;28;20047;-60
2023/06/15 09:48:44;;;;;;;9.02;2.65;;;;;;;;;;4963215;28;20058;-61
2023/06/15 09:51:10;;;;;;;8.15;2.90;;;;;;;;;;4970601;28;20042;-60
2023/06/15 09:53:39;;;;;;;5.22;2.40;;;;;;;;;;4970526;28;20038;-61
2023/06/15 09:56:05;;;;;;;8.35;2.40;;;;;;;;;;4970693;28;20154;-61
2023/06/15 09:58:32;;;;;;;8.27;2.85;;;;;;;;;;4970480;28;20109;-63
2023/06/15 10:01:01;;;;;;;6.05;2.85;;;;;;;;;;4971192;28;20049;-61
2023/06/15 10:03:28;;;;;;;11.13;2.90;;;;;;;;;;4971237;28;20042;-60
2023/06/15 10:05:59;;;;;;;7.68;2.72;;;;;;;;;;4970647;28;20065;-61
2023/06/15 10:08:27;;;;;;;8.57;2.88;;;;;;;;;;4970665;28;20047;-61
2023/06/15 10:10:55;;;;;;;9.85;2.45;;;;;;;;;;4970817;28;20094;-61
2023/06/15 10:13:26;;;;;;;7.32;2.85;;;;;;;;;;4970481;28;20046;-60
2023/06/15 10:15:55;;;;;;;14.30;2.90;;;;;;;;;;4970385;28;20162;-60
2023/06/15 10:18:22;;;;;;;8.05;3.03;;;;;;;;;;4970651;28;20736;-61
2023/06/15 10:20:55;;;;;;;5.95;2.25;;;;;;;;;;4969667;28;20519;-61
2023/06/15 10:23:26;;;;;;;4.35;2.17;;;;;;;;;;4970538;28;20131;-60
2023/06/15 10:25:55;;;;;;;4.50;2.50;;;;;;;;;;4970597;28;20499;-61
2023/06/15 10:28:23;;;;;;;3.50;2.30;;;;;;;;;;4970485;28;20050;-61
2023/06/15 10:31:04;;;;;;;6.38;2.95;;;;;;;;;;4970348;28;20500;-61
2023/06/15 10:33:33;;;;;;;3.27;2.30;;;;;;;;;;4969801;28;20063;-63
2023/06/15 10:36:05;;;;;;;8.25;2.60;;;;;;;;;;4970033;28;20094;-62
2023/06/15 10:38:38;;;;;;;7.45;2.88;;;;;;;;;;4950847;29;20508;-62
2023/06/15 10:41:05;;;;;;;4.57;2.30;;;;;;;;;;4950772;29;20058;-62
2023/06/15 10:43:31;;;;;;;6.75;2.85;;;;;;;;;;4950103;29;20531;-62
2023/06/15 10:45:57;;;;;;;6.47;2.45;;;;;;;;;;4950659;29;20082;-62
2023/06/15 10:48:26;;;;;;;4.13;2.50;;;;;;;;;;4950695;29;20059;-62
2023/06/15 10:50:52;;;;;;;6.57;2.63;;;;;;;;;;4967313;28;20394;-62
2023/06/15 10:53:25;;;;;;;3.30;2.15;;;;;;;;;;4970081;28;20067;-62
2023/06/15 10:55:55;;;;;;;5.05;2.47;;;;;;;;;;4969594;28;20408;-62
2023/06/15 10:58:21;;;;;;;3.55;2.08;;;;;;;;;;4969151;28;20045;-62
2023/06/15 11:01:05;;;;;;;4.28;2.30;;;;;;;;;;4970185;28;20480;-62
2023/06/15 11:03:32;;;;;;;3.13;2.25;;;;;;;;;;4969194;28;20152;-62
2023/06/15 11:06:02;;;;;;;6.05;2.50;;;;;;;;;;4969688;28;20448;-62
2023/06/15 11:08:32;;;;;;;7.25;2.45;;;;;;;;;;4969605;28;20051;-62
2023/06/15 11:10:58;;;;;;;6.60;2.80;;;;;;;;;;4969699;28;20515;-62
2023/06/15 11:13:25;;;;;;;4.60;2.65;;;;;;;;;;4969348;28;20102;-62
2023/06/15 11:16:06;;;;;;;6.72;2.53;;;;;;;;;;4969026;28;20638;-62
2023/06/15 11:18:32;;;;;;;3.70;2.40;;;;;;;;;;4969543;28;20059;-62
2023/06/15 11:20:59;;;;;;;6.70;2.15;;;;;;;;;;4969063;28;20150;-62
2023/06/15 11:23:26;;;;;;;6.95;2.45;;;;;;;;;;4969563;28;20070;-62
2023/06/15 11:25:55;;;;;;;4.85;2.05;;;;;;;;;;4969196;28;20463;-62
2023/06/15 11:28:24;;;;;;;6.90;2.60;;;;;;;;;;4968927;28;20497;-62
2023/06/15 11:30:50;;;;;;;4.30;2.13;;;;;;;;;;4969463;28;20049;-62
2023/06/15 11:33:25;;;;;;;5.13;2.25;;;;;;;;;;4969274;28;20050;-62
2023/06/15 11:35:51;;;;;;;3.42;2.40;;;;;;;;;;4949908;29;20047;-62
2023/06/15 11:38:17;;;;;;;3.42;2.10;;;;;;;;;;4950248;29;20097;-62
2023/06/15 11:40:46;;;;;;;5.10;2.00;;;;;;;;;;4949911;29;20493;-62
2023/06/15 11:43:12;;;;;;;3.55;2.30;;;;;;;;;;4949872;29;20068;-63
2023/06/15 11:45:38;;;;;;;2.80;2.10;;;;;;;;;;4950114;29;20066;-62
2023/06/15 11:48:14;;;;;;;3.30;2.00;;;;;;;;;;4959943;28;20174;-62
2023/06/15 11:50:43;;;;;;;5.93;2.50;;;;;;;;;;4949663;29;20051;-62
2023/06/15 11:53:19;;;;;;;5.95;2.50;;;;;;;;;;4949681;29;20515;-62
2023/06/15 11:55:45;;;;;;;7.70;2.33;;;;;;;;;;4949715;29;20489;-62
2023/06/15 11:58:11;;;;;;;4.85;1.98;;;;;;;;;;4949393;29;20133;-62
2023/06/15 12:00:37;;;;;;;4.88;2.35;;;;;;;;;;4949903;29;20113;-62
2023/06/15 12:03:10;;;;;;;7.50;1.92;;;;;;;;;;4949284;29;20078;-62
2023/06/15 12:05:36;;;;;;;3.50;2.28;;;;;;;;;;4949369;29;20047;-62
2023/06/15 12:08:03;;;;;;;3.80;2.63;;;;;;;;;;4949498;29;20055;-63
2023/06/15 12:10:29;;;;;;;4.18;2.40;;;;;;;;;;4953380;28;20413;-62
2023/06/15 12:12:59;;;;;;;4.68;1.90;;;;;;;;;;4953464;29;20054;-62
2023/06/15 12:15:25;;;;;;;3.75;2.10;;;;;;;;;;4953758;29;20043;-63
2023/06/15 12:17:51;;;;;;;3.85;2.20;;;;;;;;;;4953553;29;20079;-62
2023/06/15 12:20:17;;;;;;;5.03;2.58;;;;;;;;;;4953833;29;20047;-62
2023/06/15 12:22:45;;;;;;;3.65;2.00;;;;;;;;;;4953008;28;20047;-63
2023/06/15 12:25:11;;;;;;;4.38;2.30;;;;;;;;;;4953561;29;20054;-63
2023/06/15 12:27:51;;;;;;;4.45;2.10;;;;;;;;;;4952781;29;20379;-63
2023/06/15 12:30:18;;;;;;;4.22;2.17;;;;;;;;;;4953014;29;20102;-63
2023/06/15 12:32:48;;;;;;;4.95;2.22;;;;;;;;;;4952855;29;20106;-63
2023/06/15 12:35:26;;;;;;;4.95;2.00;;;;;;;;;;4953121;29;20516;-63
2023/06/15 12:37:54;;;;;;;6.10;2.45;;;;;;;;;;4953160;29;20099;-63
2023/06/15 12:40:23;;;;;;;4.72;2.15;;;;;;;;;;4952611;29;20482;-63
2023/06/15 12:43:09;;;;;;;3.47;2.53;;;;;;;;;;4953034;29;20043;-63
2023/06/15 12:45:35;;;;;;;4.05;2.10;;;;;;;;;;4951946;29;20413;-63
2023/06/15 12:48:02;;;;;;;4.90;2.10;;;;;;;;;;4952073;28;20117;-63
2023/06/15 12:50:31;;;;;;;6.95;2.28;;;;;;;;;;4953092;29;20054;-63
2023/06/15 12:52:58;;;;;;;4.43;2.45;;;;;;;;;;4952592;29;20513;-63
2023/06/15 12:55:25;;;;;;;5.32;2.00;;;;;;;;;;4951837;29;20519;-63
2023/06/15 12:57:51;;;;;;;5.57;2.60;;;;;;;;;;4952813;29;20062;-63
2023/06/15 13:00:19;;;;;;;4.50;2.65;;;;;;;;;;4952000;29;20508;-63
2023/06/15 13:02:45;;;;;;;4.05;2.25;;;;;;;;;;4953344;29;20051;-63
2023/06/15 13:05:11;;;;;;;4.05;2.38;;;;;;;;;;4952260;29;20049;-63
2023/06/15 13:07:38;;;;;;;3.50;2.20;;;;;;;;;;4951214;29;20433;-63
2023/06/15 13:10:04;;;;;;;3.97;2.53;;;;;;;;;;4950941;29;20552;-63
2023/06/15 13:12:30;;;;;;;6.00;2.63;;;;;;;;;;4933154;29;20058;-63
2023/06/15 13:14:57;;;;;;;5.10;2.15;;;;;;;;;;4950852;29;20051;-63
2023/06/15 13:17:23;;;;;;;4.95;2.00;;;;;;;;;;4950880;29;20050;-63
2023/06/15 13:19:49;;;;;;;3.00;2.05;;;;;;;;;;4949852;28;20051;-63
2023/06/15 13:22:16;;;;;;;6.13;2.40;;;;;;;;;;4950045;28;20260;-63
2023/06/15 14:05:13;;;;;;;3.17;2.30;;;;;;;;;;4948726;29;20374;-63
2023/06/15 14:07:40;;;;;;;4.38;2.30;;;;;;;;;;4951653;29;20457;-63
2023/06/15 14:10:06;;;;;;;5.72;2.00;;;;;;;;;;4951344;29;20051;-63
2023/06/15 14:12:32;;;;;;;5.38;2.40;;;;;;;;;;4951527;29;20047;-62
2023/06/15 14:14:58;;;;;;;4.47;1.92;;;;;;;;;;4951614;29;20461;-62
2023/06/15 14:17:24;;;;;;;8.73;2.40;;;;;;;;;;4968607;28;20042;-62
2023/06/15 14:19:51;;;;;;;2.67;2.08;;;;;;;;;;4970563;28;20454;-63
2023/06/15 14:22:17;;;;;;;5.65;2.58;;;;;;;;;;4970525;28;20464;-63
2023/06/15 14:24:43;;;;;;;3.47;2.40;;;;;;;;;;4970577;28;20043;-63
2023/06/15 14:27:11;;;;;;;5.85;2.65;;;;;;;;;;4970165;28;20054;-63
2023/06/15 14:29:37;;;;;;;9.85;2.70;;;;;;;;;;4970212;28;20097;-63
2023/06/15 14:32:03;;;;;;;5.95;2.33;;;;;;;;;;4970709;28;20445;-63
2023/06/15 14:34:29;;;;;;;4.38;2.53;;;;;;;;;;4970498;28;20571;-63
2023/06/15 14:36:55;;;;;;;7.28;2.45;;;;;;;;;;4970336;28;20090;-63
2023/06/15 14:39:21;;;;;;;3.88;2.40;;;;;;;;;;4970532;28;20089;-63
2023/06/15 14:41:47;;;;;;;6.15;2.63;;;;;;;;;;4969290;28;20074;-63
2023/06/15 14:44:13;;;;;;;5.32;2.58;;;;;;;;;;4970404;28;20101;-63
2023/06/15 14:46:41;;;;;;;7.38;2.28;;;;;;;;;;4970235;28;20071;-64
2023/06/15 14:49:07;;;;;;;5.63;2.80;;;;;;;;;;4969894;28;20082;-63
2023/06/15 14:51:37;;;;;;;4.78;2.20;;;;;;;;;;4969641;28;20053;-63
2023/06/15 14:54:03;;;;;;;3.92;2.20;;;;;;;;;;4969966;28;20170;-63
2023/06/15 14:56:30;;;;;;;5.25;2.40;;;;;;;;;;4969253;28;20115;-64
2023/06/15 14:58:56;;;;;;;6.00;2.35;;;;;;;;;;4970063;28;20055;-63
2023/06/15 15:01:23;;;;;;;3.38;2.22;;;;;;;;;;4970121;28;20053;-63
2023/06/15 15:03:52;;;;;;;5.68;2.28;;;;;;;;;;4970085;28;20078;-63
2023/06/15 15:06:18;;;;;;;5.95;2.33;;;;;;;;;;4969104;28;20063;-63
2023/06/15 15:08:45;;;;;;;5.15;2.30;;;;;;;;;;4970033;28;20129;-63
2023/06/15 15:11:11;;;;;;;5.93;2.72;;;;;;;;;;4969867;28;20417;-63
2023/06/15 15:13:37;;;;;;;6.07;2.13;;;;;;;;;;4969249;28;20058;-63
2023/06/15 15:16:03;;;;;;;5.40;2.35;;;;;;;;;;4969788;28;20500;-63
2023/06/15 15:18:29;;;;;;;6.38;2.55;;;;;;;;;;4969868;28;20488;-63
2023/06/15 15:20:59;;;;;;;5.32;2.20;;;;;;;;;;4969525;28;20043;-63
2023/06/15 15:23:26;;;;;;;6.00;2.22;;;;;;;;;;4969530;28;20085;-63
2023/06/15 15:25:54;;;;;;;4.30;2.55;;;;;;;;;;4969704;28;20053;-63
2023/06/15 15:28:21;;;;;;;5.75;2.83;;;;;;;;;;4968962;28;20087;-63
2023/06/15 15:30:47;;;;;;;6.05;2.40;;;;;;;;;;4969667;28;20045;-64
2023/06/15 15:33:13;;;;;;;4.03;2.25;;;;;;;;;;4969522;28;20046;-63
2023/06/15 15:35:39;;;;;;;6.55;2.25;;;;;;;;;;4969154;28;20118;-63
2023/06/15 15:38:05;;;;;;;9.82;2.58;;;;;;;;;;4969478;28;20556;-63
2023/06/15 15:40:31;;;;;;;5.57;2.25;;;;;;;;;;4969200;28;20050;-63
2023/06/15 15:42:57;;;;;;;4.63;2.60;;;;;;;;;;4969305;28;20073;-63
2023/06/15 15:45:23;;;;;;;6.78;2.38;;;;;;;;;;4968755;28;20404;-63
2023/06/15 15:47:49;;;;;;;5.85;2.78;;;;;;;;;;4969371;28;20046;-63
2023/06/15 15:50:15;;;;;;;6.50;2.83;;;;;;;;;;4968550;28;20527;-63
2023/06/15 15:52:41;;;;;;;3.75;2.28;;;;;;;;;;4969455;28;20047;-63
2023/06/15 15:55:07;;;;;;;4.85;2.50;;;;;;;;;;4964880;28;20047;-63
2023/06/15 15:57:33;;;;;;;6.15;2.55;;;;;;;;;;4959793;28;20075;-63
2023/06/15 15:59:59;;;;;;;4.07;2.33;;;;;;;;;;4965813;28;20539;-63
2023/06/15 16:02:26;;;;;;;6.25;3.22;;;;;;;;;;4961559;28;20401;-63
2023/06/15 16:04:55;;;;;;;5.75;2.33;;;;;;;;;;4958601;28;20059;-63
2023/06/15 16:07:21;;;;;;;3.47;2.67;;;;;;;;;;4957427;28;20479;-62
2023/06/15 16:09:48;;;;;;;4.68;3.05;;;;;;;;;;4958488;28;20058;-63
2023/06/15 16:12:15;;;;;;;5.35;2.33;;;;;;;;;;4960460;28;20133;-62
2023/06/15 16:14:41;;;;;;;5.30;2.50;;;;;;;;;;4960351;28;20070;-62
2023/06/15 16:17:07;;;;;;;4.07;2.63;;;;;;;;;;4959292;28;20047;-62
2023/06/15 16:19:33;;;;;;;4.03;2.72;;;;;;;;;;4962441;28;20046;-63
2023/06/15 16:21:59;;;;;;;4.63;2.72;;;;;;;;;;4960120;28;20047;-63
2023/06/15 16:24:25;;;;;;;6.75;2.42;;;;;;;;;;4956497;28;20058;-62
2023/06/15 16:26:51;;;;;;;5.88;2.72;;;;;;;;;;4958745;28;20467;-63
2023/06/15 16:29:17;;;;;;;5.60;2.67;;;;;;;;;;4957153;28;20131;-63
2023/06/15 16:31:43;;;;;;;4.45;3.00;;;;;;;;;;4956161;28;20130;-63
2023/06/15 16:34:09;;;;;;;6.85;3.15;;;;;;;;;;4958568;28;20082;-63
2023/06/15 16:36:36;;;;;;;5.82;2.88;;;;;;;;;;4959312;28;20067;-63
2023/06/15 16:39:02;;;;;;;9.18;2.92;;;;;;;;;;4959255;28;20094;-63
2023/06/15 16:41:28;;;;;;;5.88;2.72;;;;;;;;;;4962598;28;20047;-63
2023/06/15 16:43:54;;;;;;;4.75;2.75;;;;;;;;;;4959036;28;20134;-63
2023/06/15 16:46:20;;;;;;;9.07;2.42;;;;;;;;;;4962011;28;20038;-63
2023/06/15 16:48:46;;;;;;;6.30;2.40;;;;;;;;;;4959300;28;20483;-63
2023/06/15 16:51:12;;;;;;;4.97;2.88;;;;;;;;;;4956166;28;20054;-63
2023/06/15 16:53:38;;;;;;;5.57;2.60;;;;;;;;;;4960372;28;20137;-63
2023/06/15 16:56:04;;;;;;;4.65;2.40;;;;;;;;;;4956084;28;20581;-63
2023/06/15 16:58:30;;;;;;;4.05;2.65;;;;;;;;;;4964232;28;20051;-63
2023/06/15 17:00:56;;;;;;;5.32;2.47;;;;;;;;;;4964109;28;20145;-63
2023/06/15 17:03:22;;;;;;;6.68;2.50;;;;;;;;;;4963543;28;20125;-63
2023/06/15 17:05:48;;;;;;;7.03;2.78;;;;;;;;;;4963985;28;20536;-63
2023/06/15 17:08:16;;;;;;;4.60;2.80;;;;;;;;;;4972184;28;20047;-62
2023/06/15 17:10:42;;;;;;;8.13;2.70;;;;;;;;;;4964337;28;20505;-63
2023/06/15 17:13:08;;;;;;;7.38;2.35;;;;;;;;;;4963039;28;20150;-62
2023/06/15 17:15:35;;;;;;;10.27;2.40;;;;;;;;;;4965519;28;20126;-63
2023/06/15 17:18:01;;;;;;;4.63;2.40;;;;;;;;;;4965976;28;20039;-63
2023/06/15 17:20:27;;;;;;;6.88;2.53;;;;;;;;;;4964254;28;20043;-63
2023/06/15 17:22:53;;;;;;;6.80;2.78;;;;;;;;;;4960783;28;20405;-63
2023/06/15 17:25:19;;;;;;;7.22;2.50;;;;;;;;;;4963638;28;20043;-63
2023/06/15 17:27:45;;;;;;;7.30;2.35;;;;;;;;;;4965034;28;20051;-63
2023/06/15 17:30:11;;;;;;;7.55;2.58;;;;;;;;;;4965165;28;20069;-63
2023/06/15 17:32:37;;;;;;;6.45;2.53;;;;;;;;;;4963142;28;20526;-63
2023/06/15 17:35:04;;;;;;;7.93;2.60;;;;;;;;;;4963584;28;20044;-63
2023/06/15 17:37:30;;;;;;;8.18;2.40;;;;;;;;;;4961890;28;20557;-63
2023/06/15 17:39:56;;;;;;;6.55;2.45;;;;;;;;;;4968326;28;20505;-63
2023/06/15 17:42:22;;;;;;;12.63;3.17;;;;;;;;;;4971491;28;20066;-62
2023/06/15 17:44:48;;;;;;;15.45;3.28;;;;;;;;;;4970480;28;20051;-62
2023/06/15 17:47:14;;;;;;;13.85;3.47;;;;;;;;;;4971394;28;20050;-62
2023/06/15 17:49:40;;;;;;;15.63;3.58;;;;;;;;;;4971195;28;20050;-62
2023/06/15 17:52:09;;;;;;;6.82;2.80;;;;;;;;;;4971081;28;20173;-63
2023/06/15 17:54:35;;;;;;;13.20;2.42;;;;;;;;;;4971371;28;20046;-63
2023/06/15 17:57:01;;;;;;;4.45;2.03;;;;;;;;;;4971235;28;20050;-62
2023/06/15 17:59:27;;;;;;;9.07;2.30;;;;;;;;;;4970245;28;20515;-62
2023/06/15 18:01:53;;;;;;;10.23;2.95;;;;;;;;;;4971035;28;20129;-62
2023/06/15 18:04:20;;;;;;;11.65;3.05;;;;;;;;;;4969823;28;20313;-62
2023/06/15 18:06:46;;;;;;;11.38;2.78;;;;;;;;;;4950773;28;20062;-62
2023/06/15 18:09:14;;;;;;;9.20;2.70;;;;;;;;;;4951768;29;20044;-62
2023/06/15 18:11:40;;;;;;;7.00;2.58;;;;;;;;;;4951527;29;20122;-62